Time;durP1;ratioP1;P1;durP2;ratioP2;P2;SDS_P1;SDS_P2;PMS_P1;PMS_P2;Temp;Humidity;BMP_temperature;BMP_pressure;BME280_temperature;BME280_humidity;BME280_pressure;Samples;Min_cycle;Max_cycle;Signal;HPM_P1;HPM_P2
2023/01/26 00:00:24;;;;;;;;;;;;;;;;;;4452891;32;20113;-74
2023/01/26 00:02:49;;;;;;;149.52;46.67;;;;;;;;;;4453256;32;20374;-74
2023/01/26 00:05:14;;;;;;;;;;;;;;;;;;4452708;32;20139;-74
2023/01/26 00:07:44;;;;;;;190.62;53.97;;;;;;;;;;4453071;32;19967;-74
2023/01/26 00:10:09;;;;;;;153.30;49.58;;;;;;;;;;4453312;32;20167;-73
2023/01/26 00:12:34;;;;;;;;;;;;;;;;;;4437119;32;20438;-73
2023/01/26 00:14:59;;;;;;;164.55;49.60;;;;;;;;;;4438345;32;19986;-73
2023/01/26 00:17:24;;;;;;;;;;;;;;;;;;4439303;32;20120;-73
2023/01/26 00:19:54;;;;;;;135.48;44.15;;;;;;;;;;4437760;32;19940;-72
2023/01/26 00:22:19;;;;;;;183.77;51.03;;;;;;;;;;4453398;32;20573;-73
2023/01/26 00:24:44;;;;;;;;;;;;;;;;;;4451802;32;20130;-72
2023/01/26 00:27:09;;;;;;;178.00;53.05;;;;;;;;;;4438729;32;19976;-73
2023/01/26 00:29:34;;;;;;;;;;;;;;;;;;4437475;32;20120;-73
2023/01/26 00:31:59;;;;;;;145.32;42.88;;;;;;;;;;4452082;32;19976;-73
2023/01/26 00:34:24;;;;;;;;;;;;;;;;;;4453602;32;20171;-74
2023/01/26 00:36:50;;;;;;;152.43;46.60;;;;;;;;;;4440768;32;19953;-74
2023/01/26 00:39:15;;;;;;;;;;;;;;;;;;4440899;32;20142;-73
2023/01/26 00:44:25;;;;;;;150.35;46.42;;;;;;;;;;4452128;32;20201;-73
2023/01/26 00:46:50;;;;;;;;;;;;;;;;;;4437643;32;20041;-73
2023/01/26 00:49:15;;;;;;;152.35;45.63;;;;;;;;;;4452996;32;20299;-73
2023/01/26 00:51:40;;;;;;;153.57;47.05;;;;;;;;;;4451034;32;20049;-73
2023/01/26 00:54:05;;;;;;;151.43;47.00;;;;;;;;;;4437927;32;20051;-73
2023/01/26 00:56:30;;;;;;;;;;;;;;;;;;4453691;32;20040;-73
2023/01/26 00:58:56;;;;;;;146.80;46.45;;;;;;;;;;4452505;32;19951;-72
2023/01/26 01:01:21;;;;;;;;;;;;;;;;;;4452555;32;20179;-72
2023/01/26 01:03:46;;;;;;;130.73;43.20;;;;;;;;;;4437533;32;19940;-73
2023/01/26 01:06:11;;;;;;;;;;;;;;;;;;4437884;32;20112;-73
2023/01/26 01:08:36;;;;;;;140.55;44.15;;;;;;;;;;4452626;32;19947;-74
2023/01/26 01:11:01;;;;;;;;;;;;;;;;;;4451947;32;20120;-74
2023/01/26 01:13:27;;;;;;;131.48;39.97;;;;;;;;;;4437421;32;19944;-75
2023/01/26 01:15:52;;;;;;;;;;;;;;;;;;4438758;32;20120;-74
2023/01/26 01:18:17;;;;;;;131.77;42.03;;;;;;;;;;4436629;32;19963;-74
2023/01/26 01:20:42;;;;;;;;;;;;;;;;;;4452947;32;20116;-75
2023/01/26 01:23:07;;;;;;;143.07;43.47;;;;;;;;;;4437731;32;19936;-74
2023/01/26 01:25:33;;;;;;;;;;;;;;;;;;4455127;32;20113;-74
2023/01/26 01:27:58;;;;;;;141.43;44.00;;;;;;;;;;4441501;32;19940;-74
2023/01/26 01:30:23;;;;;;;;;;;;;;;;;;4440163;32;20056;-74
2023/01/26 01:32:50;;;;;;;123.56;41.68;;;;;;;;;;4455657;32;20082;-74
2023/01/26 01:35:15;;;;;;;119.10;41.67;;;;;;;;;;4441095;32;20029;-74
2023/01/26 01:37:40;;;;;;;;;;;;;;;;;;4455659;32;20090;-74
2023/01/26 01:40:06;;;;;;;151.60;43.92;;;;;;;;;;4440194;32;19951;-73
2023/01/26 01:42:31;;;;;;;;;;;;;;;;;;4439858;32;20117;-73
2023/01/26 01:45:15;;;;;;;149.07;44.97;;;;;;;;;;4453698;32;20277;-74
2023/01/26 01:47:40;;;;;;;137.43;43.85;;;;;;;;;;4455148;32;20128;-74
2023/01/26 01:50:06;;;;;;;;;;;;;;;;;;4455553;32;20403;-74
2023/01/26 01:52:31;;;;;;;156.70;44.30;;;;;;;;;;4454021;32;19991;-74
2023/01/26 01:54:56;;;;;;;126.82;43.08;;;;;;;;;;4455580;32;20029;-74
2023/01/26 01:57:26;;;;;;;;;;;;;;;;;;4454420;32;20107;-74
2023/01/26 01:59:54;;;;;;;143.13;44.63;;;;;;;;;;4440900;32;19949;-74
2023/01/26 02:02:19;;;;;;;130.15;40.30;;;;;;;;;;4454951;32;20117;-74
2023/01/26 02:04:44;;;;;;;;;;;;;;;;;;4454568;32;20056;-73
2023/01/26 02:07:10;;;;;;;145.92;44.26;;;;;;;;;;4442434;32;20381;-73
2023/01/26 02:12:21;;;;;;;112.47;39.72;;;;;;;;;;4455420;32;19966;-74
2023/01/26 02:14:47;;;;;;;137.48;41.70;;;;;;;;;;4440568;32;20026;-74
2023/01/26 02:17:12;;;;;;;;;;;;;;;;;;4455660;32;20037;-74
2023/01/26 02:19:56;;;;;;;164.85;43.10;;;;;;;;;;4453276;32;19948;-74
2023/01/26 02:22:39;;;;;;;133.98;42.62;;;;;;;;;;4439540;32;20537;-74
2023/01/26 02:25:08;;;;;;;133.95;42.47;;;;;;;;;;4453668;32;20052;-73
2023/01/26 02:27:33;;;;;;;132.65;45.10;;;;;;;;;;4450528;32;20072;-73
2023/01/26 02:29:59;;;;;;;;;;;;;;;;;;4440723;32;20485;-74
2023/01/26 02:32:24;;;;;;;193.27;49.80;;;;;;;;;;4455418;32;19933;-74
2023/01/26 02:34:49;;;;;;;;;;;;;;;;;;4453261;32;20121;-73
2023/01/26 02:37:14;;;;;;;175.30;45.05;;;;;;;;;;4452708;32;19976;-74
2023/01/26 02:39:39;;;;;;;;;;;;;;;;;;4439760;32;20158;-74
2023/01/26 02:44:48;;;;;;;131.87;42.70;;;;;;;;;;4453829;32;20154;-73
2023/01/26 02:47:14;;;;;;;;;;;;;;;;;;4453823;32;20428;-74
2023/01/26 02:49:49;;;;;;;137.05;44.33;;;;;;;;;;4453026;32;19940;-73
2023/01/26 02:52:25;;;;;;;191.27;52.15;;;;;;;;;;4453372;32;20067;-74
2023/01/26 02:55:24;;;;;;;147.48;44.28;;;;;;;;;;4452020;32;20485;-74
2023/01/26 02:57:42;;;;;;;157.23;44.83;;;;;;;;;;4452881;32;20075;-73
2023/01/26 03:00:07;;;;;;;;;;;;;;;;;;4438831;32;20025;-73
2023/01/26 03:02:32;;;;;;;162.32;45.85;;;;;;;;;;4447339;32;19948;-73
2023/01/26 03:04:57;;;;;;;;;;;;;;;;;;4435625;32;20636;-73
2023/01/26 03:07:23;;;;;;;145.26;44.92;;;;;;;;;;4434985;32;19958;-74
2023/01/26 03:09:48;;;;;;;;;;;;;;;;;;4452713;32;20067;-74
2023/01/26 03:12:13;;;;;;;124.65;38.80;;;;;;;;;;4439216;32;19973;-74
2023/01/26 03:14:38;;;;;;;;;;;;;;;;;;4454401;32;20240;-74
2023/01/26 03:17:03;;;;;;;128.87;42.88;;;;;;;;;;4439414;32;19941;-73
2023/01/26 03:27:42;;;;;;;116.62;40.10;;;;;;;;;;4452821;32;20465;-74
2023/01/26 03:30:08;;;;;;;122.47;40.90;;;;;;;;;;4453650;32;20477;-74
2023/01/26 03:32:33;;;;;;;;;;;;;;;;;;4452901;32;20041;-74
2023/01/26 03:34:58;;;;;;;136.75;41.88;;;;;;;;;;4439727;32;19959;-74
2023/01/26 03:37:23;;;;;;;;;;;;;;;;;;4440411;32;20522;-72
2023/01/26 03:56:20;;;;;;;145.68;43.22;;;;;;;;;;4453480;32;20370;-74
2023/01/26 03:58:56;;;;;;;165.00;48.20;;;;;;;;;;4437625;32;20025;-74
2023/01/26 04:01:26;;;;;;;180.37;51.80;;;;;;;;;;4453128;32;20017;-74
2023/01/26 04:09:21;;;;;;;125.22;40.17;;;;;;;;;;4451914;32;20055;-74
2023/01/26 04:11:46;;;;;;;;;;;;;;;;;;4451907;32;20412;-73
2023/01/26 04:22:24;;;;;;;112.95;38.67;;;;;;;;;;4436551;32;20441;-74
2023/01/26 04:24:49;;;;;;;;;;;;;;;;;;4422316;32;20097;-74
2023/01/26 04:27:15;;;;;;;125.28;40.38;;;;;;;;;;4437674;32;19947;-74
2023/01/26 04:29:40;;;;;;;;;;;;;;;;;;4437083;32;20163;-75
2023/01/26 04:32:05;;;;;;;151.82;45.22;;;;;;;;;;4436137;32;19938;-74
2023/01/26 04:34:30;;;;;;;;;;;;;;;;;;4436641;32;20175;-74
2023/01/26 04:36:55;;;;;;;122.45;40.30;;;;;;;;;;4421794;32;19936;-74
2023/01/26 04:39:20;;;;;;;;;;;;;;;;;;4436258;32;20022;-74
2023/01/26 04:41:46;;;;;;;104.35;35.10;;;;;;;;;;4435929;32;19937;-74
2023/01/26 04:44:11;;;;;;;;;;;;;;;;;;4435921;32;20556;-74
2023/01/26 04:46:36;;;;;;;131.80;39.53;;;;;;;;;;4435815;32;19951;-74
2023/01/26 04:49:01;;;;;;;;;;;;;;;;;;4435264;32;20180;-73
2023/01/26 04:51:27;;;;;;;154.45;43.72;;;;;;;;;;4435828;32;19986;-74
2023/01/26 04:53:52;;;;;;;;;;;;;;;;;;4452095;32;20124;-74
2023/01/26 04:56:28;;;;;;;114.22;36.65;;;;;;;;;;4452652;32;19936;-73
2023/01/26 04:58:54;;;;;;;149.18;43.33;;;;;;;;;;4450754;32;20140;-74
2023/01/26 05:01:19;;;;;;;;;;;;;;;;;;4453270;32;20057;-74
2023/01/26 05:03:44;;;;;;;134.02;43.67;;;;;;;;;;4437341;32;19972;-73
2023/01/26 05:06:09;;;;;;;;;;;;;;;;;;4451733;32;20331;-74
2023/01/26 05:08:35;;;;;;;187.95;47.55;;;;;;;;;;4451780;32;19972;-74
2023/01/26 05:11:00;;;;;;;;;;;;;;;;;;4451976;32;20418;-74
2023/01/26 05:13:25;;;;;;;135.20;42.83;;;;;;;;;;4451155;32;20317;-73
2023/01/26 05:15:51;;;;;;;;;;;;;;;;;;4438371;32;20021;-74
2023/01/26 05:18:16;;;;;;;100.97;35.75;;;;;;;;;;4450795;32;20306;-74
2023/01/26 05:20:41;;;;;;;;;;;;;;;;;;4452902;32;20143;-74
2023/01/26 05:23:06;;;;;;;129.73;43.35;;;;;;;;;;4450769;32;20372;-74
2023/01/26 05:25:31;;;;;;;;;;;;;;;;;;4453629;32;20151;-75
2023/01/26 05:27:57;;;;;;;150.60;53.00;;;;;;;;;;4437903;32;19936;-74
2023/01/26 05:30:22;;;;;;;;;;;;;;;;;;4453089;32;20547;-74
2023/01/26 05:32:47;;;;;;;140.32;45.02;;;;;;;;;;4452087;32;19951;-74
2023/01/26 05:35:12;;;;;;;;;;;;;;;;;;4438000;32;20045;-74
2023/01/26 05:37:37;;;;;;;92.22;34.63;;;;;;;;;;4451691;32;20350;-75
2023/01/26 05:40:02;;;;;;;;;;;;;;;;;;4438576;32;20164;-75
2023/01/26 05:42:28;;;;;;;110.45;37.42;;;;;;;;;;4451800;32;20314;-75
2023/01/26 05:44:53;;;;;;;;;;;;;;;;;;4451507;32;20030;-75
2023/01/26 05:47:19;;;;;;;139.96;44.60;;;;;;;;;;4450908;32;19956;-76
2023/01/26 05:49:44;;;;;;;;;;;;;;;;;;4453015;32;20033;-75
2023/01/26 05:52:10;;;;;;;140.27;41.40;;;;;;;;;;4451222;32;19987;-76
2023/01/26 05:54:35;;;;;;;;;;;;;;;;;;4437736;32;20377;-75
2023/01/26 05:57:00;;;;;;;147.27;42.17;;;;;;;;;;4451424;32;19933;-75
2023/01/26 05:59:26;;;;;;;;;;;;;;;;;;4451888;32;20121;-75
2023/01/26 06:01:51;;;;;;;186.12;46.42;;;;;;;;;;4452419;32;20400;-74
2023/01/26 06:04:16;;;;;;;152.05;44.45;;;;;;;;;;4451987;32;20026;-75
2023/01/26 06:06:41;;;;;;;146.30;43.08;;;;;;;;;;4452839;32;20021;-75
2023/01/26 06:09:06;;;;;;;147.07;43.97;;;;;;;;;;4452150;32;20059;-74
2023/01/26 06:11:32;;;;;;;;;;;;;;;;;;4440420;32;20408;-75
2023/01/26 06:13:57;;;;;;;145.02;42.33;;;;;;;;;;4446036;32;19941;-75
2023/01/26 06:16:22;;;;;;;127.45;40.25;;;;;;;;;;4454171;32;20415;-76
2023/01/26 06:18:48;;;;;;;;;;;;;;;;;;4453195;32;20088;-76
2023/01/26 06:21:13;;;;;;;124.72;40.55;;;;;;;;;;4454277;32;20269;-74
2023/01/26 06:23:38;;;;;;;;;;;;;;;;;;4452711;32;20089;-75
2023/01/26 06:26:05;;;;;;;204.87;48.17;;;;;;;;;;4454756;32;20003;-74
2023/01/26 06:28:30;;;;;;;158.85;44.17;;;;;;;;;;4453930;32;20025;-75
2023/01/26 06:30:55;;;;;;;;;;;;;;;;;;4452827;32;20037;-75
2023/01/26 06:33:21;;;;;;;182.02;44.67;;;;;;;;;;4454630;32;19940;-75
2023/01/26 06:35:46;;;;;;;183.12;46.40;;;;;;;;;;4455203;32;20022;-75
2023/01/26 06:38:13;;;;;;;;;;;;;;;;;;4453541;32;20100;-74
2023/01/26 06:40:38;;;;;;;205.60;47.72;;;;;;;;;;4454060;32;20313;-75
2023/01/26 06:43:04;;;;;;;;;;;;;;;;;;4453656;32;20067;-75
2023/01/26 06:45:29;;;;;;;201.98;46.13;;;;;;;;;;4454432;32;20345;-75
2023/01/26 06:47:54;;;;;;;;;;;;;;;;;;4455276;32;20065;-74
2023/01/26 06:50:21;;;;;;;302.77;49.65;;;;;;;;;;4455065;32;19964;-75
2023/01/26 06:52:49;;;;;;;364.73;56.47;;;;;;;;;;4454038;32;20140;-74
2023/01/26 06:55:19;;;;;;;411.77;59.53;;;;;;;;;;4439338;32;20131;-76
2023/01/26 06:57:44;;;;;;;217.43;47.88;;;;;;;;;;4453793;32;20044;-75
2023/01/26 07:00:09;;;;;;;;;;;;;;;;;;4439362;32;20022;-77
2023/01/26 07:02:34;;;;;;;213.30;45.15;;;;;;;;;;4453634;32;19932;-75
2023/01/26 07:05:00;;;;;;;;;;;;;;;;;;4453999;32;20120;-77
2023/01/26 07:07:25;;;;;;;243.90;48.33;;;;;;;;;;4454143;32;19932;-74
2023/01/26 07:09:50;;;;;;;;;;;;;;;;;;4454465;32;20192;-75
2023/01/26 07:12:15;;;;;;;214.28;44.48;;;;;;;;;;4454291;32;19936;-76
2023/01/26 07:14:40;;;;;;;;;;;;;;;;;;4440370;32;20482;-74
2023/01/26 07:17:05;;;;;;;224.24;47.78;;;;;;;;;;4453620;32;19937;-75
2023/01/26 07:19:32;;;;;;;;;;;;;;;;;;4453387;32;20037;-76
2023/01/26 07:21:57;;;;;;;176.13;44.10;;;;;;;;;;4452882;32;19973;-76
2023/01/26 07:24:23;;;;;;;;;;;;;;;;;;4454033;32;20029;-77
2023/01/26 07:26:48;;;;;;;191.32;47.78;;;;;;;;;;4454363;32;19933;-76
2023/01/26 07:29:13;;;;;;;;;;;;;;;;;;4453846;32;20021;-76
2023/01/26 07:31:40;;;;;;;147.55;38.55;;;;;;;;;;4438923;32;19952;-76
2023/01/26 07:34:05;;;;;;;154.45;40.72;;;;;;;;;;4453884;32;20112;-76
2023/01/26 07:36:30;;;;;;;;;;;;;;;;;;4454474;32;20048;-76
2023/01/26 07:38:55;;;;;;;161.05;41.67;;;;;;;;;;4450967;32;19944;-76
2023/01/26 07:41:20;;;;;;;;;;;;;;;;;;4440803;32;20227;-77
2023/01/26 07:43:46;;;;;;;131.65;34.25;;;;;;;;;;4437044;32;20013;-76
2023/01/26 07:46:11;;;;;;;;;;;;;;;;;;4446330;32;20117;-75
2023/01/26 07:48:36;;;;;;;111.40;31.15;;;;;;;;;;4446301;32;19933;-76
2023/01/26 07:51:02;;;;;;;;;;;;;;;;;;4422685;32;20045;-76
2023/01/26 07:53:28;;;;;;;75.97;21.37;;;;;;;;;;4437662;32;19992;-76
2023/01/26 07:55:55;;;;;;;70.47;18.98;;;;;;;;;;4437229;32;20026;-76
2023/01/26 07:58:20;;;;;;;92.93;21.17;;;;;;;;;;4436466;32;20099;-77
2023/01/26 08:00:46;;;;;;;;;;;;;;;;;;4436956;32;20021;-77
2023/01/26 08:03:11;;;;;;;69.28;14.80;;;;;;;;;;4439136;32;19937;-76
2023/01/26 08:05:37;;;;;;;;;;;;;;;;;;4436704;32;20060;-76
2023/01/26 08:08:03;;;;;;;63.08;14.70;;;;;;;;;;4423765;32;19929;-79
2023/01/26 08:10:31;;;;;;;66.97;13.05;;;;;;;;;;4437753;32;20386;-76
2023/01/26 08:12:59;;;;;;;54.38;10.25;;;;;;;;;;4436228;32;20038;-77
2023/01/26 08:15:25;;;;;;;45.80;10.57;;;;;;;;;;4437188;32;20090;-77
2023/01/26 08:17:50;;;;;;;;;;;;;;;;;;4438265;32;20313;-77
2023/01/26 08:20:15;;;;;;;44.95;9.73;;;;;;;;;;4436231;32;19932;-76
2023/01/26 08:22:40;;;;;;;;;;;;;;;;;;4436337;32;20208;-77
2023/01/26 08:25:06;;;;;;;49.13;9.48;;;;;;;;;;4436541;32;19937;-76
2023/01/26 08:27:32;;;;;;;42.53;7.70;;;;;;;;;;4437818;32;20143;-76
2023/01/26 08:29:58;;;;;;;;;;;;;;;;;;4437067;32;20025;-77
2023/01/26 08:32:24;;;;;;;42.55;7.85;;;;;;;;;;4436218;32;19977;-77
2023/01/26 08:34:49;;;;;;;;;;;;;;;;;;4437316;32;20402;-77
2023/01/26 08:37:14;;;;;;;51.83;10.23;;;;;;;;;;4437290;32;20287;-76
2023/01/26 08:39:39;;;;;;;;;;;;;;;;;;4438783;32;20149;-76
2023/01/26 08:42:04;;;;;;;47.60;7.18;;;;;;;;;;4437199;32;19950;-74
2023/01/26 08:44:29;;;;;;;;;;;;;;;;;;4437514;32;20147;-76
2023/01/26 08:46:55;;;;;;;43.72;6.97;;;;;;;;;;4436367;32;19960;-76
2023/01/26 08:49:20;;;;;;;;;;;;;;;;;;4436710;32;20131;-77
2023/01/26 08:51:45;;;;;;;50.00;7.62;;;;;;;;;;4435798;32;20311;-76
2023/01/26 08:54:10;;;;;;;;;;;;;;;;;;4436638;32;20112;-76
2023/01/26 08:56:35;;;;;;;43.47;7.15;;;;;;;;;;4436755;32;19932;-77
2023/01/26 08:59:00;;;;;;;;;;;;;;;;;;4436557;32;20136;-76
2023/01/26 09:01:26;;;;;;;41.37;7.12;;;;;;;;;;4437206;32;19932;-75
2023/01/26 09:03:51;;;;;;;;;;;;;;;;;;4422440;32;20117;-76
2023/01/26 09:06:17;;;;;;;46.47;7.22;;;;;;;;;;4436934;32;19940;-76
2023/01/26 09:08:42;;;;;;;;;;;;;;;;;;4437574;32;20026;-76
2023/01/26 09:11:07;;;;;;;50.40;9.68;;;;;;;;;;4435458;32;19932;-76
2023/01/26 09:13:33;;;;;;;;;;;;;;;;;;4436935;32;20021;-75
2023/01/26 09:15:58;;;;;;;51.58;8.57;;;;;;;;;;4435086;32;19951;-76
2023/01/26 09:18:23;;;;;;;;;;;;;;;;;;4437233;32;20085;-76
2023/01/26 09:20:49;;;;;;;47.83;8.10;;;;;;;;;;4436808;32;20002;-76
2023/01/26 09:23:16;;;;;;;32.20;6.30;;;;;;;;;;4444937;32;20030;-75
2023/01/26 09:25:42;;;;;;;44.05;7.68;;;;;;;;;;4436872;32;20434;-76
2023/01/26 09:28:07;;;;;;;;;;;;;;;;;;4452930;32;20029;-76
2023/01/26 09:30:32;;;;;;;40.78;8.30;;;;;;;;;;4452188;32;19932;-74
2023/01/26 09:32:58;;;;;;;;;;;;;;;;;;4437865;32;20121;-75
2023/01/26 09:35:23;;;;;;;47.67;7.95;;;;;;;;;;4452004;32;20018;-75
2023/01/26 09:37:48;;;;;;;;;;;;;;;;;;4449313;32;20365;-74
2023/01/26 09:40:16;;;;;;;45.58;9.55;;;;;;;;;;4435839;32;19937;-76
2023/01/26 09:42:41;;;;;;;35.15;7.25;;;;;;;;;;4436746;32;20151;-75
2023/01/26 09:45:06;;;;;;;;;;;;;;;;;;4452931;32;20359;-75
2023/01/26 09:47:43;;;;;;;38.88;7.12;;;;;;;;;;4454683;32;20314;-75
2023/01/26 09:50:16;;;;;;;37.33;7.68;;;;;;;;;;4454085;32;20120;-75
2023/01/26 09:52:49;;;;;;;42.95;6.95;;;;;;;;;;4453607;32;20045;-76
2023/01/26 09:55:18;;;;;;;41.72;6.55;;;;;;;;;;4455837;32;20055;-74
2023/01/26 09:57:51;;;;;;;39.60;7.55;;;;;;;;;;4453775;32;20666;-74
2023/01/26 10:00:16;;;;;;;40.97;6.85;;;;;;;;;;4440300;32;20415;-74
2023/01/26 10:02:41;;;;;;;;;;;;;;;;;;4454829;32;20021;-75
2023/01/26 10:05:12;;;;;;;37.74;6.52;;;;;;;;;;4454021;32;19977;-75
2023/01/26 10:07:37;;;;;;;43.05;6.90;;;;;;;;;;4442823;32;20477;-75
2023/01/26 10:10:03;;;;;;;;;;;;;;;;;;4455442;32;20104;-75
2023/01/26 10:12:35;;;;;;;38.28;7.10;;;;;;;;;;4427153;32;19952;-77
2023/01/26 10:15:03;;;;;;;49.75;6.75;;;;;;;;;;4439171;32;20403;-75
2023/01/26 10:17:28;;;;;;;47.47;7.03;;;;;;;;;;4424245;32;20415;-74
2023/01/26 10:19:53;;;;;;;;;;;;;;;;;;4438347;32;20060;-75
2023/01/26 10:22:21;;;;;;;35.38;5.72;;;;;;;;;;4437635;32;20286;-76
2023/01/26 10:24:47;;;;;;;36.22;6.37;;;;;;;;;;4422910;32;20152;-74
2023/01/26 10:27:13;;;;;;;52.35;7.80;;;;;;;;;;4423477;32;20029;-74
2023/01/26 10:29:38;;;;;;;;;;;;;;;;;;4424900;32;20060;-73
2023/01/26 10:32:04;;;;;;;37.78;7.03;;;;;;;;;;4424056;32;20274;-75
2023/01/26 10:34:29;;;;;;;;;;;;;;;;;;4451902;32;20151;-75
2023/01/26 10:37:00;;;;;;;46.13;7.60;;;;;;;;;;4430817;32;19948;-74
2023/01/26 10:39:25;;;;;;;30.23;8.25;;;;;;;;;;4437865;32;20089;-75
2023/01/26 10:41:51;;;;;;;;;;;;;;;;;;4449070;32;20025;-74
2023/01/26 10:44:28;;;;;;;38.53;8.45;;;;;;;;;;4438625;32;20000;-75
2023/01/26 10:47:04;;;;;;;32.40;6.03;;;;;;;;;;4452586;32;20056;-74
2023/01/26 10:49:29;;;;;;;31.48;7.25;;;;;;;;;;4452893;32;20057;-74
2023/01/26 10:51:55;;;;;;;;;;;;;;;;;;4439765;32;20386;-74
2023/01/26 10:54:21;;;;;;;30.58;6.30;;;;;;;;;;4453146;32;20332;-75
2023/01/26 10:56:50;;;;;;;42.67;7.78;;;;;;;;;;4452224;32;20143;-74
2023/01/26 10:59:20;;;;;;;33.60;6.57;;;;;;;;;;4452316;32;20033;-74
2023/01/26 11:01:52;;;;;;;38.50;6.40;;;;;;;;;;4453815;32;20393;-75
2023/01/26 11:04:18;;;;;;;37.45;5.97;;;;;;;;;;4439999;32;20046;-74
2023/01/26 11:06:43;;;;;;;;;;;;;;;;;;4437124;32;20048;-74
2023/01/26 11:09:30;;;;;;;28.48;6.47;;;;;;;;;;4438326;32;19991;-74
2023/01/26 11:11:55;;;;;;;41.53;6.35;;;;;;;;;;4437322;32;20488;-73
2023/01/26 11:14:20;;;;;;;;;;;;;;;;;;4437704;32;20026;-74
2023/01/26 11:16:57;;;;;;;30.40;5.07;;;;;;;;;;4443789;32;19943;-74
2023/01/26 11:19:41;;;;;;;37.15;6.57;;;;;;;;;;4438149;32;20030;-73
2023/01/26 11:22:10;;;;;;;31.62;5.32;;;;;;;;;;4424478;32;20038;-73
2023/01/26 11:24:45;;;;;;;35.42;4.97;;;;;;;;;;4437733;32;20021;-73
2023/01/26 11:27:20;;;;;;;27.08;4.80;;;;;;;;;;4438434;32;20060;-73
2023/01/26 11:30:14;;;;;;;18.83;4.50;;;;;;;;;;4453861;32;20030;-73
2023/01/26 11:32:40;;;;;;;29.73;6.45;;;;;;;;;;4452976;32;20355;-74
2023/01/26 11:35:05;;;;;;;;;;;;;;;;;;4436921;32;20060;-73
2023/01/26 11:37:36;;;;;;;22.33;4.30;;;;;;;;;;4451930;32;19972;-74
2023/01/26 11:40:10;;;;;;;29.58;5.68;;;;;;;;;;4439423;32;20532;-74
2023/01/26 11:42:56;;;;;;;28.30;4.82;;;;;;;;;;4421508;32;20082;-74
2023/01/26 11:45:21;;;;;;;18.30;4.35;;;;;;;;;;4425758;32;20064;-73
2023/01/26 11:47:46;;;;;;;;;;;;;;;;;;4422953;32;20030;-73
2023/01/26 11:50:32;;;;;;;23.67;5.40;;;;;;;;;;4437465;32;19944;-73
2023/01/26 11:53:09;;;;;;;25.37;5.03;;;;;;;;;;4436014;32;20219;-73
2023/01/26 11:55:34;;;;;;;18.25;4.28;;;;;;;;;;4436518;32;20052;-74
2023/01/26 11:58:00;;;;;;;;;;;;;;;;;;4446962;32;20081;-74
2023/01/26 12:00:49;;;;;;;20.60;4.35;;;;;;;;;;4449276;32;20381;-73
2023/01/26 12:03:17;;;;;;;27.90;4.20;;;;;;;;;;4411829;32;20127;-73
2023/01/26 12:05:44;;;;;;;21.23;4.28;;;;;;;;;;4436486;32;20051;-73
2023/01/26 12:08:09;;;;;;;22.77;4.80;;;;;;;;;;4434632;32;20103;-73
2023/01/26 12:10:35;;;;;;;;;;;;;;;;;;4437871;32;20022;-74
2023/01/26 12:13:13;;;;;;;25.18;4.02;;;;;;;;;;4437542;32;19932;-74
2023/01/26 12:15:41;;;;;;;23.02;4.45;;;;;;;;;;4437286;32;20093;-74
2023/01/26 12:18:07;;;;;;;22.37;4.30;;;;;;;;;;4421184;32;20313;-74
2023/01/26 12:20:48;;;;;;;17.48;3.42;;;;;;;;;;4433973;32;20403;-74
2023/01/26 12:23:26;;;;;;;20.37;3.83;;;;;;;;;;4434492;32;20029;-74
2023/01/26 12:26:20;;;;;;;19.52;4.45;;;;;;;;;;4436069;32;20060;-73
2023/01/26 12:28:47;;;;;;;24.60;3.92;;;;;;;;;;4415970;32;20116;-74
2023/01/26 12:31:16;;;;;;;21.87;4.40;;;;;;;;;;4442716;32;20084;-74
2023/01/26 12:33:41;;;;;;;26.30;4.87;;;;;;;;;;4436995;32;20048;-73
2023/01/26 12:36:06;;;;;;;;;;;;;;;;;;4452765;32;20093;-73
2023/01/26 12:38:43;;;;;;;23.45;5.50;;;;;;;;;;4452653;32;20255;-73
2023/01/26 12:41:22;;;;;;;24.50;4.70;;;;;;;;;;4451764;32;20510;-71
2023/01/26 12:43:47;;;;;;;19.50;5.07;;;;;;;;;;4437220;32;20029;-72
2023/01/26 12:46:12;;;;;;;;;;;;;;;;;;4453011;32;20021;-74
2023/01/26 12:48:42;;;;;;;24.27;4.37;;;;;;;;;;4446155;32;19937;-74
2023/01/26 12:51:09;;;;;;;21.30;4.35;;;;;;;;;;4435860;32;20021;-74
2023/01/26 12:53:36;;;;;;;18.73;4.72;;;;;;;;;;4436028;32;20435;-73
2023/01/26 12:56:07;;;;;;;25.12;3.85;;;;;;;;;;4445730;32;20060;-74
2023/01/26 12:58:35;;;;;;;25.27;4.18;;;;;;;;;;4440347;32;20431;-75
2023/01/26 13:01:02;;;;;;;24.02;4.90;;;;;;;;;;4440304;32;20119;-74
2023/01/26 13:03:30;;;;;;;19.35;3.35;;;;;;;;;;4436350;32;20060;-75
2023/01/26 13:06:00;;;;;;;19.55;3.78;;;;;;;;;;4445219;32;20521;-75
2023/01/26 13:08:29;;;;;;;20.52;3.53;;;;;;;;;;4436461;32;20416;-74
2023/01/26 13:10:54;;;;;;;17.05;3.95;;;;;;;;;;4436493;32;20379;-73
2023/01/26 13:13:19;;;;;;;;;;;;;;;;;;4438534;32;20068;-74
2023/01/26 13:15:45;;;;;;;33.35;4.78;;;;;;;;;;4422093;32;19996;-75
2023/01/26 13:18:10;;;;;;;;;;;;;;;;;;4420854;32;20529;-73
2023/01/26 13:20:44;;;;;;;11.20;3.17;;;;;;;;;;4423875;32;19936;-73
2023/01/26 13:23:27;;;;;;;9.90;3.12;;;;;;;;;;4438333;32;20563;-74
2023/01/26 13:26:11;;;;;;;18.12;3.83;;;;;;;;;;4439343;32;20030;-72
2023/01/26 13:28:37;;;;;;;18.52;3.95;;;;;;;;;;4424323;32;20100;-72
2023/01/26 13:31:02;;;;;;;;;;;;;;;;;;4432154;32;20025;-73
2023/01/26 13:33:27;;;;;;;14.55;2.72;;;;;;;;;;4454747;32;20373;-73
2023/01/26 13:35:52;;;;;;;;;;;;;;;;;;4440773;32;20184;-72
2023/01/26 13:38:26;;;;;;;21.35;4.62;;;;;;;;;;4455999;32;19974;-73
2023/01/26 13:40:52;;;;;;;22.35;4.65;;;;;;;;;;4439615;32;20132;-73
2023/01/26 13:43:18;;;;;;;;;;;;;;;;;;4455305;32;20410;-74
2023/01/26 13:45:50;;;;;;;17.85;2.87;;;;;;;;;;4440257;32;20286;-74
2023/01/26 13:48:19;;;;;;;15.55;2.85;;;;;;;;;;4454134;32;20025;-73
2023/01/26 13:50:48;;;;;;;15.85;3.22;;;;;;;;;;4440730;32;20370;-73
2023/01/26 13:53:35;;;;;;;11.00;2.28;;;;;;;;;;4439115;32;20490;-73
2023/01/26 13:56:02;;;;;;;18.65;5.43;;;;;;;;;;4453912;32;20064;-73
2023/01/26 13:58:27;;;;;;;17.85;3.80;;;;;;;;;;4453088;32;20431;-74
2023/01/26 14:00:52;;;;;;;;;;;;;;;;;;4452691;32;20056;-72
2023/01/26 14:03:21;;;;;;;17.10;3.03;;;;;;;;;;4453786;32;19950;-74
2023/01/26 14:05:51;;;;;;;24.55;3.15;;;;;;;;;;4439161;32;20158;-74
2023/01/26 14:08:16;;;;;;;15.30;2.95;;;;;;;;;;4453943;32;20085;-74
2023/01/26 14:10:42;;;;;;;;;;;;;;;;;;4439782;32;20026;-72
2023/01/26 14:13:13;;;;;;;18.02;3.17;;;;;;;;;;4439278;32;20318;-74
2023/01/26 14:15:38;;;;;;;20.05;3.17;;;;;;;;;;4439358;32;20072;-73
2023/01/26 14:18:04;;;;;;;;;;;;;;;;;;4453724;32;20414;-73
2023/01/26 14:20:31;;;;;;;18.62;4.35;;;;;;;;;;4454864;32;19972;-73
2023/01/26 14:23:09;;;;;;;18.10;3.87;;;;;;;;;;4453288;32;20048;-74
2023/01/26 14:25:34;;;;;;;14.85;2.65;;;;;;;;;;4453864;32;20411;-74
2023/01/26 14:27:59;;;;;;;;;;;;;;;;;;4453288;32;20063;-73
2023/01/26 14:30:27;;;;;;;12.14;2.56;;;;;;;;;;4453141;32;19977;-72
2023/01/26 14:33:01;;;;;;;10.75;2.20;;;;;;;;;;4438769;32;20074;-73
2023/01/26 14:35:27;;;;;;;8.52;1.92;;;;;;;;;;4438682;32;20021;-74
2023/01/26 14:37:52;;;;;;;;;;;;;;;;;;4440889;32;20102;-73
2023/01/26 14:40:18;;;;;;;14.05;2.40;;;;;;;;;;4453305;32;19994;-72
2023/01/26 14:42:43;;;;;;;;;;;;;;;;;;4453812;32;20187;-73
2023/01/26 14:45:12;;;;;;;16.25;3.22;;;;;;;;;;4438405;32;19940;-71
2023/01/26 14:47:38;;;;;;;16.02;2.90;;;;;;;;;;4438506;32;20369;-72
2023/01/26 14:50:13;;;;;;;25.35;3.62;;;;;;;;;;4441502;32;20078;-74
2023/01/26 14:52:42;;;;;;;9.45;2.80;;;;;;;;;;4443921;32;20029;-74
2023/01/26 14:55:27;;;;;;;11.88;2.60;;;;;;;;;;4451509;32;20020;-72
2023/01/26 14:57:53;;;;;;;14.20;3.60;;;;;;;;;;4438631;32;20068;-73
2023/01/26 15:00:18;;;;;;;;;;;;;;;;;;4425914;32;20022;-74
2023/01/26 15:02:46;;;;;;;17.75;2.78;;;;;;;;;;4451195;32;19932;-74
2023/01/26 15:05:12;;;;;;;13.18;2.22;;;;;;;;;;4452608;32;20158;-75
2023/01/26 15:07:42;;;;;;;8.88;2.53;;;;;;;;;;4438426;32;20082;-74
2023/01/26 15:10:26;;;;;;;13.00;2.60;;;;;;;;;;4453924;32;20445;-76
2023/01/26 15:12:56;;;;;;;11.52;2.97;;;;;;;;;;4432885;32;20049;-74
2023/01/26 15:15:22;;;;;;;13.38;2.60;;;;;;;;;;4437315;32;20059;-77
2023/01/26 15:17:49;;;;;;;;;;;;;;;;;;4437066;32;20030;-74
2023/01/26 15:20:14;;;;;;;17.00;2.60;;;;;;;;;;4438040;32;20250;-77
2023/01/26 15:22:39;;;;;;;;;;;;;;;;;;4438539;32;20060;-74
2023/01/26 15:25:07;;;;;;;12.37;2.60;;;;;;;;;;4423794;32;20341;-73
2023/01/26 15:27:34;;;;;;;10.95;2.37;;;;;;;;;;4437855;32;20021;-74
2023/01/26 15:30:00;;;;;;;16.25;2.80;;;;;;;;;;4441251;32;20025;-74
2023/01/26 15:32:25;;;;;;;;;;;;;;;;;;4444983;32;20033;-73
2023/01/26 15:35:01;;;;;;;13.38;3.10;;;;;;;;;;4451980;32;20015;-73
2023/01/26 15:37:31;;;;;;;14.60;3.35;;;;;;;;;;4450966;32;20043;-74
2023/01/26 15:39:56;;;;;;;13.00;2.83;;;;;;;;;;4432346;32;20024;-74
2023/01/26 15:42:22;;;;;;;;;;;;;;;;;;4436612;32;20393;-73
2023/01/26 15:44:47;;;;;;;18.98;3.03;;;;;;;;;;4437633;32;19936;-72
2023/01/26 15:47:12;;;;;;;;;;;;;;;;;;4453975;32;20104;-74
2023/01/26 15:49:38;;;;;;;13.70;2.65;;;;;;;;;;4424445;32;19937;-74